Time;durP1;ratioP1;P1;durP2;ratioP2;P2;SDS_P1;SDS_P2;PMS_P1;PMS_P2;Temp;Humidity;BMP_temperature;BMP_pressure;BME280_temperature;BME280_humidity;BME280_pressure;Samples;Min_cycle;Max_cycle;Signal;HPM_P1;HPM_P2
2023/12/31 00:00:13;;;;;;;16.90;7.28;;;;;;;7.71;100.00;101089.22;5062705;28;20033;-70
2023/12/31 00:02:38;;;;;;;20.40;9.18;;;;;;;7.69;100.00;101085.91;5062065;28;20094;-70
2023/12/31 00:05:05;;;;;;;18.00;7.82;;;;;;;7.74;100.00;101090.78;5064943;28;20568;-70
2023/12/31 00:07:30;;;;;;;14.40;7.07;;;;;;;7.76;100.00;101086.31;5063933;28;20035;-70
2023/12/31 00:09:56;;;;;;;19.83;7.72;;;;;;;7.79;100.00;101088.69;5061054;28;20032;-71
2023/12/31 00:12:21;;;;;;;14.00;6.95;;;;;;;7.78;100.00;101079.25;5056355;28;20029;-70
2023/12/31 00:14:47;;;;;;;15.55;8.15;;;;;;;7.73;100.00;101081.34;5064953;28;20431;-70
2023/12/31 00:17:12;;;;;;;24.45;8.07;;;;;;;7.74;100.00;101070.03;5062502;28;20075;-70
2023/12/31 00:19:38;;;;;;;19.00;6.90;;;;;;;7.75;100.00;101074.28;5059521;28;20028;-70
2023/12/31 00:22:04;;;;;;;19.65;7.75;;;;;;;7.72;100.00;101071.91;5058999;28;20036;-70
2023/12/31 00:24:29;;;;;;;19.10;7.45;;;;;;;7.76;100.00;101073.34;5061808;28;20528;-70
2023/12/31 00:26:54;;;;;;;14.63;7.95;;;;;;;7.71;100.00;101065.06;5057973;28;20024;-70
2023/12/31 00:29:20;;;;;;;16.08;8.70;;;;;;;7.72;100.00;101061.53;5059571;28;20113;-70
2023/12/31 00:31:45;;;;;;;14.35;7.18;;;;;;;7.74;100.00;101059.66;5064259;28;21635;-70
2023/12/31 00:34:11;;;;;;;17.80;8.45;;;;;;;7.79;100.00;101058.38;5061215;28;20063;-70
2023/12/31 00:36:37;;;;;;;18.90;8.88;;;;;;;7.81;100.00;101061.69;5060954;28;20040;-70
2023/12/31 00:39:03;;;;;;;15.52;7.97;;;;;;;7.83;100.00;101054.63;5060792;28;20044;-70
2023/12/31 00:41:28;;;;;;;12.43;7.05;;;;;;;7.86;100.00;101053.56;5060945;28;20052;-70
2023/12/31 00:43:54;;;;;;;15.63;8.70;;;;;;;7.88;100.00;101047.34;5059262;28;20102;-70
2023/12/31 00:46:19;;;;;;;18.00;6.90;;;;;;;7.87;100.00;101050.03;5063186;28;20067;-70
2023/12/31 00:48:45;;;;;;;16.55;7.60;;;;;;;7.85;100.00;101038.94;5061969;28;20090;-70
2023/12/31 00:51:10;;;;;;;18.33;8.23;;;;;;;7.82;100.00;101036.56;5060791;28;20032;-70
2023/12/31 00:53:36;;;;;;;16.13;7.43;;;;;;;7.79;100.00;101039.38;5058583;28;20385;-70
2023/12/31 00:56:02;;;;;;;14.52;7.13;;;;;;;7.82;100.00;101041.75;5060318;28;20025;-70
2023/12/31 00:58:28;;;;;;;13.70;7.43;;;;;;;7.86;100.00;101043.19;5055255;28;20090;-70
2023/12/31 01:00:53;;;;;;;15.73;8.13;;;;;;;7.86;100.00;101040.59;5058960;28;20093;-70
2023/12/31 01:03:19;;;;;;;10.82;6.00;;;;;;;7.87;100.00;101045.69;5064452;28;20044;-70
2023/12/31 01:05:45;;;;;;;13.63;7.25;;;;;;;7.85;100.00;101044.13;5068299;28;20029;-70
2023/12/31 01:08:10;;;;;;;14.98;8.00;;;;;;;7.79;100.00;101042.81;5064956;28;20038;-70
2023/12/31 01:10:36;;;;;;;16.67;7.40;;;;;;;7.78;100.00;101041.16;5068407;28;20074;-70
2023/12/31 01:13:02;;;;;;;18.25;7.20;;;;;;;7.68;100.00;101034.97;5066621;28;20508;-70
2023/12/31 01:15:28;;;;;;;12.63;7.70;;;;;;;7.61;100.00;101038.97;5063917;28;20516;-70
2023/12/31 01:17:53;;;;;;;13.48;6.85;;;;;;;7.61;100.00;101026.81;5068298;28;20024;-70
2023/12/31 01:20:18;;;;;;;15.88;7.60;;;;;;;7.64;100.00;101030.97;5066660;28;20060;-70
2023/12/31 01:22:44;;;;;;;15.77;7.38;;;;;;;7.65;100.00;101036.03;5065065;28;20428;-70
2023/12/31 01:25:09;;;;;;;14.30;6.65;;;;;;;7.66;100.00;101032.50;5059797;28;20060;-70
2023/12/31 01:27:35;;;;;;;16.88;7.43;;;;;;;7.70;100.00;101032.28;5063557;28;20029;-70
2023/12/31 01:30:01;;;;;;;13.50;6.75;;;;;;;7.76;100.00;101031.84;5066278;28;20032;-70
2023/12/31 01:32:27;;;;;;;15.57;8.10;;;;;;;7.79;100.00;101032.44;5066131;28;20076;-70
2023/12/31 01:34:58;;;;;;;18.50;7.60;;;;;;;7.82;100.00;101028.78;5066470;28;20036;-70
2023/12/31 01:37:23;;;;;;;14.93;6.63;;;;;;;7.87;100.00;101029.28;5066515;28;20559;-70
2023/12/31 01:39:49;;;;;;;13.05;7.20;;;;;;;7.88;100.00;101031.75;5067218;28;20044;-70
2023/12/31 01:42:14;;;;;;;14.00;7.20;;;;;;;7.89;100.00;101032.59;5070695;28;20036;-70
2023/12/31 01:44:40;;;;;;;19.40;7.47;;;;;;;7.89;100.00;101022.22;5059877;28;20040;-70
2023/12/31 01:47:06;;;;;;;13.05;6.95;;;;;;;7.86;100.00;101025.84;5066669;28;20028;-70
2023/12/31 01:49:32;;;;;;;17.95;7.90;;;;;;;7.87;100.00;101024.09;5062400;28;20031;-70
2023/12/31 01:52:00;;;;;;;13.10;6.60;;;;;;;7.87;100.00;101006.75;5068545;28;20436;-70
2023/12/31 01:54:28;;;;;;;16.30;7.90;;;;;;;7.87;100.00;101011.94;5068658;28;20032;-70
2023/12/31 01:56:54;;;;;;;18.92;7.72;;;;;;;7.86;100.00;101010.28;5062964;28;20033;-70
2023/12/31 01:59:22;;;;;;;13.95;6.55;;;;;;;7.84;100.00;101009.59;5069013;28;20024;-70
2023/12/31 02:01:48;;;;;;;18.45;7.38;;;;;;;7.81;100.00;101003.78;5063337;28;20401;-70
2023/12/31 02:04:15;;;;;;;12.18;6.60;;;;;;;7.80;100.00;101002.13;5065874;28;20032;-70
2023/12/31 02:06:40;;;;;;;13.05;6.10;;;;;;;7.81;100.00;101003.78;5065358;28;20063;-70
2023/12/31 02:09:06;;;;;;;13.23;7.00;;;;;;;7.81;100.00;100996.84;5069201;28;20036;-70
2023/12/31 02:11:34;;;;;;;13.80;6.82;;;;;;;7.83;100.00;100996.72;5072607;28;20028;-70
2023/12/31 02:14:00;;;;;;;15.48;6.43;;;;;;;7.82;100.00;100995.06;5070589;28;20025;-70
2023/12/31 02:16:25;;;;;;;14.27;6.22;;;;;;;7.82;100.00;100995.91;5069122;28;20033;-70
2023/12/31 02:18:51;;;;;;;12.95;6.45;;;;;;;7.84;100.00;100994.00;5072070;28;20115;-70
2023/12/31 02:21:16;;;;;;;14.23;6.43;;;;;;;7.82;100.00;100980.31;5069037;28;20041;-70
2023/12/31 02:23:43;;;;;;;21.40;7.68;;;;;;;7.80;100.00;100976.19;5068129;28;20093;-70
2023/12/31 02:26:10;;;;;;;24.77;8.45;;;;;;;7.77;100.00;100969.47;5077101;28;20029;-70
2023/12/31 02:28:36;;;;;;;21.00;8.00;;;;;;;7.75;100.00;100973.13;5070041;28;20047;-70
2023/12/31 02:31:06;;;;;;;22.48;8.75;;;;;;;7.74;100.00;100967.09;5067500;28;20507;-70
2023/12/31 02:33:32;;;;;;;18.95;6.55;;;;;;;7.71;100.00;100962.13;5065566;28;20040;-70
2023/12/31 02:35:57;;;;;;;17.75;7.65;;;;;;;7.71;100.00;100956.94;5069927;28;20031;-70
2023/12/31 02:38:23;;;;;;;18.35;7.57;;;;;;;7.76;100.00;100956.59;5070969;28;20377;-70
2023/12/31 02:40:48;;;;;;;16.55;7.32;;;;;;;7.81;100.00;100952.72;5066936;28;20127;-70
2023/12/31 02:43:14;;;;;;;12.13;6.10;;;;;;;7.86;100.00;100957.59;5070380;28;20409;-70
2023/12/31 02:45:39;;;;;;;12.18;5.85;;;;;;;7.86;100.00;100966.19;5071428;28;23710;-70
2023/12/31 02:48:06;;;;;;;12.00;6.07;;;;;;;7.88;100.00;100963.47;5066448;28;20070;-70
2023/12/31 02:50:32;;;;;;;17.02;7.47;;;;;;;7.86;100.00;100953.22;5071085;28;20033;-70
2023/12/31 02:52:57;;;;;;;13.38;6.70;;;;;;;7.86;100.00;100950.63;5075241;28;20549;-70
2023/12/31 02:55:24;;;;;;;11.52;6.07;;;;;;;7.86;100.00;100948.03;5068820;28;20546;-70
2023/12/31 02:57:49;;;;;;;10.60;5.75;;;;;;;7.86;100.00;100937.66;5071108;28;20033;-70
2023/12/31 03:00:15;;;;;;;9.82;5.78;;;;;;;7.88;100.00;100947.91;5069141;28;20094;-70
2023/12/31 03:02:41;;;;;;;11.02;5.32;;;;;;;7.87;100.00;100948.84;5066805;28;20044;-70
2023/12/31 03:05:10;;;;;;;13.80;6.55;;;;;;;7.85;100.00;100950.75;5066620;28;20486;-70
2023/12/31 03:07:36;;;;;;;11.43;5.97;;;;;;;7.79;100.00;100956.38;5076786;28;20034;-70
2023/12/31 03:10:02;;;;;;;14.15;6.70;;;;;;;7.75;100.00;100952.38;5070987;28;20028;-70
2023/12/31 03:12:27;;;;;;;14.77;7.00;;;;;;;7.73;100.00;100959.44;5072040;28;20032;-69
2023/12/31 03:14:55;;;;;;;17.35;7.13;;;;;;;7.75;100.00;100957.56;5062514;28;20032;-70
2023/12/31 03:17:20;;;;;;;14.23;6.47;;;;;;;7.75;100.00;100954.97;5072672;28;20039;-70
2023/12/31 03:19:46;;;;;;;16.98;7.30;;;;;;;7.72;100.00;100955.19;5070836;28;20024;-70
2023/12/31 03:22:11;;;;;;;18.00;8.65;;;;;;;7.73;100.00;100962.84;5065482;28;20031;-71
2023/12/31 03:24:36;;;;;;;18.77;7.50;;;;;;;7.72;100.00;100960.38;5064125;28;20036;-70
2023/12/31 03:27:02;;;;;;;16.83;8.23;;;;;;;7.71;100.00;100961.31;5066781;28;20029;-70
2023/12/31 03:29:28;;;;;;;15.57;7.80;;;;;;;7.71;100.00;100956.13;5067139;28;20067;-70
2023/12/31 03:31:53;;;;;;;16.63;8.10;;;;;;;7.71;100.00;100943.16;5068227;28;20044;-70
2023/12/31 03:34:19;;;;;;;15.57;8.27;;;;;;;7.69;100.00;100939.84;5075237;28;21162;-70
2023/12/31 03:36:45;;;;;;;16.88;8.75;;;;;;;7.70;100.00;100938.91;5068876;28;20047;-70
2023/12/31 03:39:11;;;;;;;15.25;7.18;;;;;;;7.72;100.00;100943.03;5068732;28;20055;-70
2023/12/31 03:41:36;;;;;;;15.38;7.75;;;;;;;7.71;100.00;100935.38;5067809;28;20673;-70
2023/12/31 03:44:02;;;;;;;15.25;6.82;;;;;;;7.70;100.00;100931.94;5070241;28;20040;-70
2023/12/31 03:46:27;;;;;;;16.88;6.93;;;;;;;7.70;100.00;100924.16;5067316;28;20047;-70
2023/12/31 03:48:53;;;;;;;15.18;6.72;;;;;;;7.71;100.00;100919.81;5067934;28;20036;-70
2023/12/31 03:51:18;;;;;;;13.75;6.35;;;;;;;7.75;100.00;100921.25;5065425;28;20040;-71
2023/12/31 03:53:44;;;;;;;15.32;7.40;;;;;;;7.76;100.00;100915.94;5068505;28;20067;-70
2023/12/31 03:56:09;;;;;;;12.85;6.13;;;;;;;7.79;100.00;100913.09;5066623;28;20482;-70
2023/12/31 03:58:35;;;;;;;13.25;7.15;;;;;;;7.85;100.00;100917.00;5072070;28;20051;-70
2023/12/31 04:01:00;;;;;;;13.93;6.65;;;;;;;7.89;100.00;100915.84;5072122;28;20145;-70
2023/12/31 04:03:26;;;;;;;14.82;7.85;;;;;;;7.88;100.00;100899.44;5065119;28;20032;-70
2023/12/31 04:05:52;;;;;;;14.73;6.57;;;;;;;7.80;100.00;100888.81;5072338;28;20032;-70
2023/12/31 04:08:18;;;;;;;15.35;7.40;;;;;;;7.79;100.00;100887.16;5066896;28;20062;-70
2023/12/31 04:10:43;;;;;;;12.30;6.55;;;;;;;7.83;100.00;100892.94;5067067;28;20126;-70
2023/12/31 04:13:09;;;;;;;13.25;7.13;;;;;;;7.89;100.00;100892.50;5077472;28;20051;-70
2023/12/31 04:15:34;;;;;;;11.50;7.00;;;;;;;7.91;100.00;100903.59;5067257;28;20029;-70
2023/12/31 04:18:00;;;;;;;13.85;6.95;;;;;;;7.92;100.00;100905.22;5071158;28;20064;-70
2023/12/31 04:20:25;;;;;;;15.00;6.70;;;;;;;7.82;100.00;100906.88;5066136;28;20055;-70
2023/12/31 04:22:51;;;;;;;17.73;7.80;;;;;;;7.75;100.00;100897.88;5075447;28;20075;-70
2023/12/31 04:25:16;;;;;;;16.15;6.90;;;;;;;7.73;100.00;100900.59;5068157;28;20052;-70
2023/12/31 04:27:44;;;;;;;13.60;6.72;;;;;;;7.71;100.00;100896.47;5067505;28;20033;-70
2023/12/31 04:30:11;;;;;;;10.90;6.05;;;;;;;7.72;100.00;100895.53;5067404;28;20047;-70
2023/12/31 04:32:36;;;;;;;12.63;6.90;;;;;;;7.75;100.00;100896.13;5070416;28;20041;-70
2023/12/31 04:35:03;;;;;;;12.10;6.05;;;;;;;7.81;100.00;100897.44;5071998;28;20032;-70
2023/12/31 04:37:30;;;;;;;14.90;7.15;;;;;;;7.85;100.00;100894.50;5064994;28;20090;-71
2023/12/31 04:39:55;;;;;;;15.25;7.05;;;;;;;7.85;100.00;100896.25;5073047;28;20039;-70
2023/12/31 04:42:20;;;;;;;14.40;5.90;;;;;;;7.84;100.00;100886.81;5067838;28;20027;-70
2023/12/31 04:44:46;;;;;;;15.25;7.15;;;;;;;7.83;100.00;100883.41;5065990;28;20024;-70
2023/12/31 04:47:12;;;;;;;17.42;7.93;;;;;;;7.83;100.00;100892.94;5068396;28;20059;-70
2023/12/31 04:49:37;;;;;;;14.45;6.95;;;;;;;7.83;100.00;100882.56;5062215;28;20033;-70
2023/12/31 04:52:03;;;;;;;19.50;8.10;;;;;;;7.85;100.00;100885.88;5063785;28;20134;-70
2023/12/31 04:54:28;;;;;;;13.00;7.15;;;;;;;7.88;100.00;100886.47;5062323;28;20032;-70
2023/12/31 04:56:54;;;;;;;18.50;8.07;;;;;;;7.87;100.00;100884.00;5065464;28;20179;-70
2023/12/31 04:59:19;;;;;;;11.00;6.25;;;;;;;7.86;100.00;100892.72;5071383;28;20432;-70
2023/12/31 05:01:49;;;;;;;15.60;8.18;;;;;;;7.88;100.00;100890.84;5071210;28;20029;-70
2023/12/31 05:04:14;;;;;;;14.13;6.85;;;;;;;7.90;100.00;100883.75;5066720;28;20126;-70
2023/12/31 05:06:39;;;;;;;14.05;6.60;;;;;;;7.89;100.00;100874.34;5067350;28;20488;-70
2023/12/31 05:09:08;;;;;;;17.35;7.22;;;;;;;7.85;100.00;100870.31;5065418;28;20036;-70
2023/12/31 05:11:33;;;;;;;15.18;7.55;;;;;;;7.84;100.00;100869.50;5069342;28;20381;-70
2023/12/31 05:13:59;;;;;;;16.58;7.28;;;;;;;7.85;100.00;100867.72;5068977;28;20025;-70
2023/12/31 05:16:26;;;;;;;22.30;8.88;;;;;;;7.86;100.00;100865.00;5063787;28;20062;-70
2023/12/31 05:18:53;;;;;;;16.02;7.72;;;;;;;7.88;100.00;100863.13;5071477;28;20032;-70
2023/12/31 05:21:19;;;;;;;13.45;6.97;;;;;;;7.92;100.00;100861.13;5066368;28;20039;-70
2023/12/31 05:23:45;;;;;;;15.80;8.40;;;;;;;7.94;100.00;100856.66;5063683;28;20056;-70
2023/12/31 05:26:11;;;;;;;13.88;6.22;;;;;;;7.93;100.00;100862.78;5066257;28;20075;-70
2023/12/31 05:28:37;;;;;;;15.63;7.93;;;;;;;7.91;100.00;100865.50;5070114;28;20059;-70
2023/12/31 05:31:03;;;;;;;12.00;6.57;;;;;;;7.91;100.00;100849.09;5070781;28;20098;-70
2023/12/31 05:33:28;;;;;;;16.65;7.75;;;;;;;7.92;100.00;100856.75;5069563;28;20024;-70
2023/12/31 05:35:54;;;;;;;13.35;7.22;;;;;;;7.92;100.00;100845.56;5069774;28;20118;-70
2023/12/31 05:38:19;;;;;;;14.05;7.13;;;;;;;7.92;100.00;100851.56;5069811;28;20042;-70
2023/12/31 05:40:44;;;;;;;17.90;7.55;;;;;;;7.92;100.00;100845.56;5066786;28;20334;-70
2023/12/31 05:43:11;;;;;;;14.75;7.50;;;;;;;7.92;100.00;100850.75;5069369;28;20058;-70
2023/12/31 05:45:37;;;;;;;14.00;6.68;;;;;;;7.92;100.00;100842.97;5069805;28;20060;-70
2023/12/31 05:48:02;;;;;;;17.88;6.15;;;;;;;7.93;100.00;100855.00;5072019;28;20063;-70
2023/12/31 05:50:28;;;;;;;13.38;7.07;;;;;;;7.93;100.00;100844.63;5071266;28;20105;-70
2023/12/31 05:52:53;;;;;;;16.20;8.05;;;;;;;7.91;100.00;100849.09;5071226;28;20033;-70
2023/12/31 05:55:19;;;;;;;17.58;8.15;;;;;;;7.91;100.00;100846.50;5071362;28;20035;-70
2023/12/31 05:57:45;;;;;;;17.27;7.82;;;;;;;7.86;100.00;100841.66;5068353;28;20048;-70
2023/12/31 06:00:11;;;;;;;15.68;7.60;;;;;;;7.88;100.00;100849.34;5065944;28;20044;-70
2023/12/31 06:02:37;;;;;;;17.35;6.95;;;;;;;7.87;100.00;100842.50;5066754;28;20036;-70
2023/12/31 06:05:03;;;;;;;17.65;7.20;;;;;;;7.87;100.00;100832.13;5066700;28;20098;-69
2023/12/31 06:07:29;;;;;;;17.63;7.80;;;;;;;7.83;100.00;100835.88;5067638;28;20024;-69
2023/12/31 06:09:54;;;;;;;18.60;7.13;;;;;;;7.85;100.00;100834.00;5068200;28;20507;-69
2023/12/31 06:12:20;;;;;;;15.90;7.80;;;;;;;7.85;100.00;100834.00;5064629;28;20079;-69
2023/12/31 06:14:45;;;;;;;15.75;7.78;;;;;;;7.84;100.00;100838.38;5062820;28;20090;-69
2023/12/31 06:17:10;;;;;;;14.95;7.80;;;;;;;7.82;100.00;100831.63;5068877;28;20063;-69
2023/12/31 06:19:36;;;;;;;15.35;7.43;;;;;;;7.81;100.00;100835.16;5065809;28;20071;-69
2023/12/31 06:22:01;;;;;;;16.05;8.30;;;;;;;7.81;100.00;100837.78;5067251;28;20497;-69
2023/12/31 06:24:27;;;;;;;14.98;7.90;;;;;;;7.77;100.00;100836.34;5065009;28;20386;-69
2023/12/31 06:26:52;;;;;;;13.50;6.80;;;;;;;7.77;100.00;100833.75;5067239;28;20032;-69
2023/12/31 06:29:18;;;;;;;17.58;7.80;;;;;;;7.76;100.00;100834.69;5068800;28;20028;-69
2023/12/31 06:31:44;;;;;;;14.10;7.18;;;;;;;7.79;100.00;100837.06;5065404;28;20742;-69
2023/12/31 06:34:09;;;;;;;17.88;7.57;;;;;;;7.83;100.00;100836.72;5065731;28;20125;-69
2023/12/31 06:36:35;;;;;;;15.80;7.65;;;;;;;7.85;100.00;100837.41;5066279;28;20452;-69
2023/12/31 06:39:00;;;;;;;18.60;7.50;;;;;;;7.88;100.00;100838.94;5069209;28;20024;-69
2023/12/31 06:41:26;;;;;;;17.00;6.65;;;;;;;7.88;100.00;100831.16;5065881;28;20097;-69
2023/12/31 06:43:52;;;;;;;15.40;7.07;;;;;;;7.88;100.00;100833.75;5068392;28;20052;-69
2023/12/31 06:46:17;;;;;;;15.75;7.65;;;;;;;7.87;100.00;100832.13;5064698;28;20039;-69
2023/12/31 06:48:42;;;;;;;13.30;6.88;;;;;;;7.82;100.00;100827.28;5067666;28;20098;-69
2023/12/31 06:51:08;;;;;;;18.50;7.85;;;;;;;7.78;100.00;100827.63;5068914;28;20169;-69
2023/12/31 06:53:34;;;;;;;15.35;7.13;;;;;;;7.77;100.00;100829.41;5064093;28;20146;-68
2023/12/31 06:56:06;;;;;;;17.85;8.32;;;;;;;7.80;100.00;100826.56;5068538;28;20039;-68
2023/12/31 06:58:33;;;;;;;22.90;7.60;;;;;;;7.86;100.00;100833.88;5067986;28;20048;-69
2023/12/31 07:00:58;;;;;;;18.48;7.97;;;;;;;7.87;100.00;100826.94;5063661;28;20518;-68
2023/12/31 07:03:24;;;;;;;12.15;5.95;;;;;;;7.91;100.00;100825.75;5066477;28;20469;-68
2023/12/31 07:05:50;;;;;;;12.80;7.07;;;;;;;7.92;100.00;100823.03;5064960;28;20029;-69
2023/12/31 07:08:16;;;;;;;14.50;6.93;;;;;;;7.92;100.00;100822.22;5074549;28;20047;-68
2023/12/31 07:10:42;;;;;;;16.77;7.78;;;;;;;7.92;100.00;100824.81;5070976;28;20024;-68
2023/12/31 07:13:08;;;;;;;15.75;7.05;;;;;;;7.91;100.00;100829.16;5077154;28;20033;-68
2023/12/31 07:15:34;;;;;;;14.93;6.70;;;;;;;7.90;100.00;100821.50;5061846;28;20044;-68
2023/12/31 07:18:00;;;;;;;15.23;7.47;;;;;;;7.91;100.00;100820.56;5061742;28;20052;-69
2023/12/31 07:20:26;;;;;;;17.13;7.70;;;;;;;7.92;100.00;100809.22;5067535;28;20090;-69
2023/12/31 07:22:53;;;;;;;15.55;7.82;;;;;;;7.94;100.00;100809.94;5071985;28;20449;-68
2023/12/31 07:25:19;;;;;;;16.65;7.75;;;;;;;7.96;100.00;100800.28;5065343;28;20044;-68
2023/12/31 07:27:45;;;;;;;17.40;8.88;;;;;;;7.96;100.00;100800.28;5067772;28;20043;-68
2023/12/31 07:30:11;;;;;;;22.95;10.57;;;;;;;7.96;100.00;100801.09;5065875;28;20040;-69
2023/12/31 07:32:36;;;;;;;18.85;9.25;;;;;;;7.99;100.00;100805.22;5075397;28;20051;-68
2023/12/31 07:35:02;;;;;;;20.20;10.23;;;;;;;8.04;100.00;100792.69;5062146;28;20024;-68
2023/12/31 07:37:27;;;;;;;22.35;10.65;;;;;;;8.10;100.00;100802.59;5072076;28;20036;-69
2023/12/31 07:39:52;;;;;;;23.05;12.02;;;;;;;8.15;100.00;100799.63;5065515;28;20021;-69
2023/12/31 07:42:18;;;;;;;25.38;11.85;;;;;;;8.18;100.00;100799.41;5069351;28;20036;-69
2023/12/31 07:44:44;;;;;;;24.70;11.15;;;;;;;8.17;100.00;100801.16;5062247;28;20155;-69
2023/12/31 07:47:09;;;;;;;18.00;9.40;;;;;;;8.16;100.00;100811.66;5072613;28;20127;-69
2023/12/31 07:49:35;;;;;;;14.43;7.60;;;;;;;8.12;100.00;100813.69;5065862;28;20725;-69
2023/12/31 07:52:00;;;;;;;20.55;8.88;;;;;;;8.11;100.00;100809.44;5071825;28;20033;-69
2023/12/31 07:54:26;;;;;;;17.92;7.85;;;;;;;8.10;100.00;100818.16;5069357;28;20020;-69
2023/12/31 07:56:52;;;;;;;20.48;8.73;;;;;;;8.08;100.00;100808.84;5073547;28;20040;-69
2023/12/31 07:59:18;;;;;;;18.35;8.35;;;;;;;8.06;100.00;100806.38;5067338;28;20084;-68
2023/12/31 08:01:43;;;;;;;15.90;8.57;;;;;;;8.02;100.00;100802.41;5073834;28;20036;-69
2023/12/31 08:04:09;;;;;;;17.10;8.15;;;;;;;7.95;100.00;100804.63;5069124;28;20047;-68
2023/12/31 08:06:34;;;;;;;15.70;7.38;;;;;;;7.88;100.00;100808.66;5064479;28;20032;-68
2023/12/31 08:09:00;;;;;;;18.65;8.43;;;;;;;7.81;100.00;100809.22;5068267;28;20036;-69
2023/12/31 08:11:26;;;;;;;17.45;8.75;;;;;;;7.82;100.00;100803.94;5079145;28;20062;-68
2023/12/31 08:13:51;;;;;;;19.08;8.40;;;;;;;7.87;100.00;100809.59;5059685;28;20485;-69
2023/12/31 08:16:19;;;;;;;20.38;10.48;;;;;;;7.92;100.00;100814.44;5069543;28;20095;-68
2023/12/31 08:18:44;;;;;;;20.02;9.27;;;;;;;7.87;100.00;100811.34;5067412;28;20032;-68
2023/12/31 08:21:10;;;;;;;19.02;9.85;;;;;;;7.85;100.00;100808.06;5072947;28;20454;-68
2023/12/31 08:23:36;;;;;;;15.98;9.98;;;;;;;7.83;100.00;100815.13;5065471;28;20119;-68
2023/12/31 08:26:01;;;;;;;19.08;9.40;;;;;;;7.84;100.00;100820.19;5070367;28;20031;-68
2023/12/31 08:28:26;;;;;;;21.52;11.27;;;;;;;7.89;100.00;100814.66;5069912;28;20370;-68
2023/12/31 08:30:52;;;;;;;18.90;9.98;;;;;;;7.95;100.00;100815.00;5060607;28;20052;-68
2023/12/31 08:33:18;;;;;;;17.08;9.20;;;;;;;8.03;100.00;100811.00;5070845;28;20168;-68
2023/12/31 08:35:43;;;;;;;18.13;9.05;;;;;;;8.06;100.00;100816.75;5065685;28;20104;-68
2023/12/31 08:38:09;;;;;;;15.82;8.50;;;;;;;8.11;100.00;100817.22;5064293;28;20892;-68
2023/12/31 08:40:35;;;;;;;16.63;9.63;;;;;;;8.14;100.00;100818.75;5063055;28;20032;-69
2023/12/31 08:43:01;;;;;;;23.00;10.48;;;;;;;8.12;100.00;100820.63;5068003;28;20028;-70
2023/12/31 08:45:27;;;;;;;21.42;10.85;;;;;;;8.05;100.00;100830.66;5063103;28;21383;-68
2023/12/31 08:47:52;;;;;;;23.25;11.00;;;;;;;8.05;100.00;100835.84;5067521;28;20106;-69
2023/12/31 08:50:18;;;;;;;20.88;9.57;;;;;;;8.03;100.00;100829.16;5071582;28;20461;-68
2023/12/31 08:52:45;;;;;;;19.30;9.93;;;;;;;7.97;100.00;100833.06;5062609;28;20048;-68
2023/12/31 08:55:12;;;;;;;23.52;9.68;;;;;;;7.93;100.00;100832.47;5073882;28;20032;-68
2023/12/31 08:57:44;;;;;;;23.50;10.85;;;;;;;7.94;100.00;100843.66;5064374;28;20028;-68
2023/12/31 09:00:11;;;;;;;23.10;9.75;;;;;;;7.97;100.00;100843.44;5062272;28;20038;-68
2023/12/31 09:02:36;;;;;;;16.35;9.70;;;;;;;7.97;100.00;100841.66;5063246;28;20028;-68
2023/12/31 09:05:02;;;;;;;18.58;10.30;;;;;;;7.95;100.00;100838.38;5068918;28;20082;-68
2023/12/31 09:07:27;;;;;;;22.23;10.27;;;;;;;7.95;100.00;100834.94;5072828;28;20032;-68
2023/12/31 09:09:53;;;;;;;18.50;9.38;;;;;;;7.97;100.00;100835.66;5068060;28;20025;-69
2023/12/31 09:12:19;;;;;;;17.30;8.93;;;;;;;8.06;100.00;100842.69;5068597;28;20495;-69
2023/12/31 09:14:44;;;;;;;22.23;11.35;;;;;;;8.15;100.00;100842.00;5070780;28;20043;-68
2023/12/31 09:17:10;;;;;;;22.17;10.55;;;;;;;8.18;100.00;100840.94;5070333;28;21312;-68
2023/12/31 09:19:38;;;;;;;20.30;9.77;;;;;;;8.22;100.00;100835.38;5064121;28;20058;-68
2023/12/31 09:22:03;;;;;;;19.02;10.38;;;;;;;8.26;100.00;100831.59;5057225;28;20520;-69
2023/12/31 09:24:30;;;;;;;18.70;9.38;;;;;;;8.30;100.00;100830.41;5056821;28;20041;-69
2023/12/31 09:26:55;;;;;;;25.35;11.02;;;;;;;8.32;100.00;100830.28;5063725;28;20131;-69
2023/12/31 09:29:21;;;;;;;22.88;10.57;;;;;;;8.34;100.00;100831.03;5062143;28;20032;-68
2023/12/31 09:31:46;;;;;;;26.10;11.13;;;;;;;8.37;100.00;100837.75;5058678;28;20036;-69
2023/12/31 09:34:12;;;;;;;22.05;9.60;;;;;;;8.41;100.00;100828.78;5057595;28;20120;-69
2023/12/31 09:36:37;;;;;;;20.10;9.88;;;;;;;8.46;100.00;100826.63;5053991;28;20046;-69
2023/12/31 09:39:03;;;;;;;23.35;9.77;;;;;;;8.50;100.00;100828.06;5059574;28;20043;-69
2023/12/31 09:41:30;;;;;;;26.85;10.80;;;;;;;8.51;100.00;100825.31;5060427;28;21844;-69
2023/12/31 09:43:56;;;;;;;22.02;10.60;;;;;;;8.54;100.00;100832.03;5055764;28;20493;-69
2023/12/31 09:46:22;;;;;;;23.55;10.80;;;;;;;8.55;100.00;100813.72;5064947;28;20042;-69
2023/12/31 09:48:51;;;;;;;31.15;12.52;;;;;;;8.58;100.00;100812.66;5068085;28;21088;-69
2023/12/31 09:51:21;;;;;;;20.77;11.05;;;;;;;8.61;100.00;100821.03;5067874;28;20032;-69
2023/12/31 09:53:51;;;;;;;24.88;11.80;;;;;;;8.66;100.00;100818.06;5070038;28;20031;-68
2023/12/31 09:56:17;;;;;;;22.63;10.05;;;;;;;8.67;100.00;100814.50;5063178;28;20402;-69
2023/12/31 09:58:43;;;;;;;22.63;11.20;;;;;;;8.68;100.00;100810.97;5067728;28;20119;-68
2023/12/31 10:01:08;;;;;;;22.17;10.65;;;;;;;8.71;100.00;100808.13;5064533;28;20182;-68
2023/12/31 10:03:36;;;;;;;25.38;12.10;;;;;;;8.72;100.00;100814.97;5067602;28;20044;-69
2023/12/31 10:06:05;;;;;;;28.00;13.18;;;;;;;8.74;100.00;100813.06;5067258;28;20021;-69
2023/12/31 10:08:32;;;;;;;31.67;13.88;;;;;;;8.74;100.00;100807.06;5069149;28;20103;-69
2023/12/31 10:10:59;;;;;;;25.35;12.77;;;;;;;8.72;100.00;100811.53;5065647;28;20388;-68
2023/12/31 10:13:26;;;;;;;25.77;12.68;;;;;;;8.70;100.00;100805.66;5071666;28;20488;-68
2023/12/31 10:15:51;;;;;;;29.55;13.68;;;;;;;8.70;100.00;100809.06;5061303;28;20086;-68
2023/12/31 10:18:17;;;;;;;30.63;12.57;;;;;;;8.72;100.00;100808.94;5066972;28;20422;-67
2023/12/31 10:20:42;;;;;;;26.42;13.23;;;;;;;8.72;100.00;100803.75;5069235;28;20040;-68
2023/12/31 10:23:08;;;;;;;26.00;13.13;;;;;;;8.71;100.00;100808.13;5074528;28;20595;-67
2023/12/31 10:25:34;;;;;;;29.80;13.02;;;;;;;8.70;100.00;100801.28;5071027;28;20127;-67
2023/12/31 10:27:59;;;;;;;28.58;13.82;;;;;;;8.70;100.00;100803.88;5069858;28;20385;-67
2023/12/31 10:30:25;;;;;;;24.23;12.60;;;;;;;8.67;100.00;100808.50;5069488;28;20036;-67
2023/12/31 10:32:51;;;;;;;27.10;12.65;;;;;;;8.62;100.00;100798.47;5071410;28;20039;-68
2023/12/31 10:35:20;;;;;;;28.13;14.40;;;;;;;8.60;100.00;100784.78;5066486;28;20107;-67
2023/12/31 10:37:46;;;;;;;29.38;14.20;;;;;;;8.60;100.00;100784.78;5068981;28;20477;-67
2023/12/31 10:40:22;;;;;;;29.08;13.98;;;;;;;8.59;100.00;100783.97;5063463;28;20075;-67
2023/12/31 10:42:55;;;;;;;33.05;16.52;;;;;;;8.56;100.00;100768.63;5071780;28;20071;-67
2023/12/31 10:45:22;;;;;;;31.33;16.23;;;;;;;8.55;100.00;100766.97;5064931;28;20338;-67
2023/12/31 10:47:53;;;;;;;31.98;14.70;;;;;;;8.55;100.00;100758.34;5071216;28;20359;-67
2023/12/31 10:50:28;;;;;;;28.67;14.88;;;;;;;8.52;100.00;100761.19;5069928;28;20062;-68
2023/12/31 10:52:57;;;;;;;27.60;13.13;;;;;;;8.48;100.00;100750.25;5069857;28;20040;-72
2023/12/31 10:55:26;;;;;;;26.88;13.13;;;;;;;8.46;100.00;100749.56;5066379;28;20028;-72
2023/12/31 10:57:52;;;;;;;30.27;14.63;;;;;;;8.45;100.00;100747.09;5070355;28;20457;-72
2023/12/31 11:00:19;;;;;;;27.40;13.65;;;;;;;8.45;100.00;100739.31;5070503;28;20060;-72
2023/12/31 11:02:45;;;;;;;30.67;14.10;;;;;;;8.46;100.00;100735.75;5067960;28;20024;-72
2023/12/31 11:05:13;;;;;;;28.63;13.40;;;;;;;8.48;100.00;100733.84;5066200;28;20039;-72
2023/12/31 11:07:40;;;;;;;30.38;14.45;;;;;;;8.45;100.00;100727.16;5070179;28;20033;-72